Time;durP1;ratioP1;P1;durP2;ratioP2;P2;SDS_P1;SDS_P2;PMS_P1;PMS_P2;Temp;Humidity;BMP_temperature;BMP_pressure;BME280_temperature;BME280_humidity;BME280_pressure;Samples;Min_cycle;Max_cycle;Signal;HPM_P1;HPM_P2
2022/09/09 00:00:15;;;;;;;2.08;0.73;;;;;;;23.19;51.16;100706.34;4971027;28;20034;-63
2022/09/09 00:02:45;;;;;;;1.45;0.50;;;;;;;23.20;50.82;100710.66;4979141;28;20040;-63
2022/09/09 00:05:32;;;;;;;1.20;0.50;;;;;;;23.20;50.74;100709.84;4976537;28;20110;-63
2022/09/09 00:08:03;;;;;;;1.65;0.60;;;;;;;23.18;50.62;100708.19;4975066;28;20038;-62
2022/09/09 00:10:40;;;;;;;0.98;0.50;;;;;;;23.18;50.71;100704.69;4969445;28;20066;-63
2022/09/09 00:13:27;;;;;;;1.70;0.52;;;;;;;23.14;50.66;100701.50;4979233;28;20049;-64
2022/09/09 00:16:19;;;;;;;2.40;0.60;;;;;;;23.15;50.64;100702.34;4967567;28;20045;-62
2022/09/09 00:18:55;;;;;;;1.63;0.60;;;;;;;23.14;50.67;100703.34;4980804;28;20463;-64
2022/09/09 00:21:32;;;;;;;1.33;0.50;;;;;;;23.14;50.61;100704.16;4969654;28;20038;-63
2022/09/09 00:23:58;;;;;;;0.90;0.50;;;;;;;23.10;50.68;100692.19;4972003;28;20023;-64
2022/09/09 00:26:42;;;;;;;3.22;0.60;;;;;;;23.14;50.92;100709.47;4979582;28;20100;-63
2022/09/09 00:29:08;;;;;;;1.15;0.60;;;;;;;23.13;50.59;100704.31;4966844;28;20213;-64
2022/09/09 00:31:34;;;;;;;1.67;0.57;;;;;;;23.09;50.64;100700.34;4965988;28;20574;-64
2022/09/09 00:34:09;;;;;;;1.65;0.50;;;;;;;23.09;50.48;100695.03;4962132;28;20085;-63
2022/09/09 00:36:35;;;;;;;1.95;0.60;;;;;;;23.07;50.86;100687.19;4978391;28;20034;-61
2022/09/09 00:39:02;;;;;;;1.35;0.57;;;;;;;23.10;50.38;100691.38;4970263;28;20092;-64
2022/09/09 00:41:34;;;;;;;3.40;0.70;;;;;;;23.06;50.52;100685.50;4963752;28;20030;-64
2022/09/09 00:44:23;;;;;;;1.98;0.50;;;;;;;23.08;50.40;100680.06;4973651;28;20093;-63
2022/09/09 00:46:56;;;;;;;1.83;0.50;;;;;;;23.06;50.34;100677.53;4970450;28;20031;-61
2022/09/09 00:49:47;;;;;;;1.63;0.50;;;;;;;23.05;50.61;100681.19;4970998;28;20031;-63
2022/09/09 00:52:34;;;;;;;2.47;0.70;;;;;;;23.05;50.17;100680.34;4972160;28;20035;-62
2022/09/09 00:55:37;;;;;;;1.83;0.50;;;;;;;23.03;50.26;100675.19;4965019;28;20070;-64
2022/09/09 00:58:08;;;;;;;1.55;0.50;;;;;;;23.01;50.57;100671.88;4976527;28;20497;-64
2022/09/09 01:00:43;;;;;;;2.25;0.73;;;;;;;23.02;50.49;100678.88;4972123;28;20462;-64
2022/09/09 01:03:38;;;;;;;2.38;0.70;;;;;;;23.01;50.40;100675.34;4970722;28;20185;-63
2022/09/09 01:06:29;;;;;;;2.03;0.70;;;;;;;22.96;50.08;100671.53;4966666;28;20046;-64
2022/09/09 01:09:22;;;;;;;1.98;0.50;;;;;;;23.00;50.07;100673.72;4967490;28;20035;-64
2022/09/09 01:12:10;;;;;;;1.70;0.50;;;;;;;22.99;50.46;100673.88;4963474;28;20038;-63
2022/09/09 01:14:35;;;;;;;0.93;0.40;;;;;;;22.98;50.45;100674.84;4975914;28;20041;-62
2022/09/09 01:17:07;;;;;;;1.85;0.80;;;;;;;22.96;50.08;100669.69;4975397;28;20390;-63
2022/09/09 01:19:55;;;;;;;1.25;0.50;;;;;;;22.95;50.15;100672.50;4969259;28;20043;-63
2022/09/09 01:22:35;;;;;;;1.35;0.50;;;;;;;22.96;50.27;100674.19;4971034;28;20034;-65
2022/09/09 01:25:25;;;;;;;1.38;0.57;;;;;;;22.94;50.38;100663.72;4978980;28;20034;-63
2022/09/09 01:27:54;;;;;;;1.95;0.50;;;;;;;22.91;49.91;100653.41;4970948;28;20035;-62
2022/09/09 01:30:20;;;;;;;2.50;0.70;;;;;;;22.90;50.01;100651.72;4964985;28;20046;-63
2022/09/09 01:32:49;;;;;;;1.50;0.60;;;;;;;22.89;49.87;100655.41;4980694;28;20026;-63
2022/09/09 01:35:31;;;;;;;3.78;0.80;;;;;;;22.88;50.24;100647.59;4983098;28;20030;-63
2022/09/09 01:37:56;;;;;;;2.08;0.70;;;;;;;22.84;50.13;100644.41;4979393;28;20113;-62
2022/09/09 01:40:22;;;;;;;1.00;0.57;;;;;;;22.89;50.25;100655.41;4980774;28;20133;-64
2022/09/09 01:42:47;;;;;;;2.22;0.60;;;;;;;22.88;49.98;100645.75;4979519;28;20034;-63
2022/09/09 01:45:13;;;;;;;0.68;0.47;;;;;;;22.79;50.15;100639.56;4976467;28;20542;-64
2022/09/09 01:47:38;;;;;;;4.90;0.60;;;;;;;22.89;49.79;100651.88;4976748;28;20112;-63
2022/09/09 01:50:04;;;;;;;1.77;0.50;;;;;;;22.88;49.90;100647.59;4975790;28;20947;-64
2022/09/09 01:52:31;;;;;;;1.40;0.60;;;;;;;22.85;50.00;100639.94;4972454;28;20054;-64
2022/09/09 01:54:56;;;;;;;1.45;0.50;;;;;;;22.84;49.72;100639.09;4976950;28;20027;-63
2022/09/09 01:57:30;;;;;;;0.85;0.50;;;;;;;22.83;49.80;100640.91;4970936;28;20048;-63
2022/09/09 02:00:09;;;;;;;2.22;0.65;;;;;;;22.87;50.17;100645.91;4972469;28;20039;-63
2022/09/09 02:02:48;;;;;;;1.15;0.60;;;;;;;22.86;49.74;100636.28;4973436;28;20371;-63
2022/09/09 02:05:48;;;;;;;2.63;0.60;;;;;;;22.86;49.86;100639.78;4975447;28;20074;-64
2022/09/09 02:08:50;;;;;;;1.15;0.50;;;;;;;22.81;49.68;100632.28;4968538;28;20691;-62
2022/09/09 02:11:21;;;;;;;1.33;0.57;;;;;;;22.83;49.74;100624.97;4927916;29;20058;-63
2022/09/09 02:13:50;;;;;;;2.83;0.60;;;;;;;22.82;50.03;100625.13;4969768;28;20105;-64
2022/09/09 02:16:26;;;;;;;3.13;0.70;;;;;;;22.79;50.09;100620.16;4983604;28;20035;-62
2022/09/09 02:19:30;;;;;;;2.78;0.80;;;;;;;22.82;49.76;100633.94;4970839;28;20027;-62
2022/09/09 02:21:59;;;;;;;1.75;0.60;;;;;;;22.76;50.01;100631.09;4974315;28;20100;-62
2022/09/09 02:24:26;;;;;;;2.80;0.63;;;;;;;22.80;49.81;100635.09;4975357;28;20037;-63
2022/09/09 02:26:55;;;;;;;2.75;0.88;;;;;;;22.75;50.01;100626.78;4964280;28;20034;-64
2022/09/09 02:29:32;;;;;;;1.05;0.60;;;;;;;22.78;49.97;100626.44;4964186;28;20816;-63
2022/09/09 02:32:03;;;;;;;2.80;0.70;;;;;;;22.77;49.60;100619.50;4974764;28;20073;-63
2022/09/09 02:34:34;;;;;;;2.65;0.80;;;;;;;22.74;49.48;100619.81;4983390;28;20141;-63
2022/09/09 02:37:03;;;;;;;2.67;0.70;;;;;;;22.76;49.61;100623.94;4978635;28;20848;-64
2022/09/09 02:39:29;;;;;;;1.48;0.60;;;;;;;22.73;49.85;100615.47;4964096;28;20055;-63
2022/09/09 02:41:55;;;;;;;1.33;0.70;;;;;;;22.74;49.80;100615.31;4964134;28;20038;-62
2022/09/09 02:44:21;;;;;;;2.45;1.00;;;;;;;22.76;49.50;100615.16;4963926;28;20066;-63
2022/09/09 02:46:53;;;;;;;1.23;0.63;;;;;;;22.76;49.92;100617.81;4980709;28;20065;-62
2022/09/09 02:49:29;;;;;;;1.67;0.60;;;;;;;22.76;49.89;100623.94;4972472;28;20401;-63
2022/09/09 02:52:08;;;;;;;1.70;0.70;;;;;;;22.70;49.82;100608.69;4976717;28;20454;-63
2022/09/09 02:54:37;;;;;;;1.55;0.50;;;;;;;22.71;49.82;100615.63;4969247;28;20038;-63
2022/09/09 02:57:16;;;;;;;2.00;0.95;;;;;;;22.74;49.48;100625.94;4964305;28;20109;-63
2022/09/09 02:59:43;;;;;;;2.30;0.73;;;;;;;22.71;49.67;100623.59;4982920;28;20030;-63
2022/09/09 03:02:10;;;;;;;2.47;0.85;;;;;;;22.66;49.72;100620.59;4982794;28;20038;-64
2022/09/09 03:04:35;;;;;;;2.75;0.90;;;;;;;22.69;49.83;100616.81;4979083;28;20101;-64
2022/09/09 03:07:00;;;;;;;1.05;0.60;;;;;;;22.68;49.62;100621.25;4978247;28;20458;-63
2022/09/09 03:09:25;;;;;;;1.77;0.80;;;;;;;22.67;49.49;100613.47;4970427;28;20041;-63
2022/09/09 03:11:51;;;;;;;2.63;0.63;;;;;;;22.68;49.51;100618.59;4982882;28;20026;-63
2022/09/09 03:14:20;;;;;;;2.45;0.50;;;;;;;22.67;49.49;100616.97;4982630;28;20052;-62
2022/09/09 03:16:46;;;;;;;2.25;0.77;;;;;;;22.69;49.49;100632.75;4978094;28;20437;-62
2022/09/09 03:19:11;;;;;;;2.60;0.88;;;;;;;22.71;49.41;100636.06;4963558;28;20035;-62
2022/09/09 03:21:36;;;;;;;1.57;0.77;;;;;;;22.68;49.77;100633.72;4962806;28;20041;-63
2022/09/09 03:24:03;;;;;;;1.87;0.70;;;;;;;22.69;49.63;100641.53;4963637;28;20296;-63
2022/09/09 03:26:30;;;;;;;2.40;0.63;;;;;;;22.69;49.69;100646.84;4974287;28;20268;-63
2022/09/09 03:28:55;;;;;;;2.70;0.60;;;;;;;22.69;49.79;100646.03;4972489;28;20034;-62
2022/09/09 03:31:21;;;;;;;1.42;0.60;;;;;;;22.69;49.89;100646.03;4981254;28;20070;-62
2022/09/09 03:33:46;;;;;;;1.80;0.60;;;;;;;22.68;49.71;100637.19;4982478;28;20097;-63
2022/09/09 03:36:11;;;;;;;3.25;0.68;;;;;;;22.68;49.91;100639.03;4965350;28;20030;-62
2022/09/09 03:38:37;;;;;;;2.33;0.70;;;;;;;22.64;49.94;100631.38;4962925;28;20457;-63
2022/09/09 03:41:03;;;;;;;2.05;0.68;;;;;;;22.66;49.79;100633.88;4963076;28;20280;-63
2022/09/09 03:43:29;;;;;;;1.25;0.50;;;;;;;22.63;49.62;100628.88;4962643;28;20976;-63
2022/09/09 03:45:57;;;;;;;2.60;0.70;;;;;;;22.65;49.44;100626.88;4964442;28;20027;-64
2022/09/09 03:48:24;;;;;;;1.35;0.57;;;;;;;22.64;49.59;100631.38;4974100;28;20045;-63
2022/09/09 03:50:52;;;;;;;2.15;0.60;;;;;;;22.64;49.45;100633.22;4968135;28;20035;-64
2022/09/09 03:53:19;;;;;;;1.20;0.60;;;;;;;22.62;49.71;100627.22;4964936;28;20450;-64
2022/09/09 03:55:46;;;;;;;3.20;0.70;;;;;;;22.65;49.86;100629.56;4962679;28;20078;-64
2022/09/09 03:58:13;;;;;;;3.05;0.60;;;;;;;22.61;49.52;100621.06;4962629;28;20367;-63
2022/09/09 04:00:42;;;;;;;1.40;0.63;;;;;;;22.64;49.90;100628.72;4975737;28;20398;-64
2022/09/09 04:03:08;;;;;;;3.10;0.70;;;;;;;22.64;49.78;100627.91;4964021;28;20054;-64
2022/09/09 04:05:33;;;;;;;1.70;0.60;;;;;;;22.63;49.87;100623.56;4962845;28;20046;-62
2022/09/09 04:07:59;;;;;;;2.45;0.63;;;;;;;22.57;49.78;100611.78;4962444;28;20039;-65
2022/09/09 04:10:24;;;;;;;2.42;0.60;;;;;;;22.62;49.74;100622.75;4962536;28;20118;-64
2022/09/09 04:12:49;;;;;;;1.70;0.63;;;;;;;22.60;49.96;100621.22;4962359;28;20467;-62
2022/09/09 04:15:15;;;;;;;2.00;0.60;;;;;;;22.61;49.82;100612.28;4962652;28;20374;-63
2022/09/09 04:17:40;;;;;;;1.55;0.60;;;;;;;22.58;49.48;100617.91;4981601;28;20133;-63
2022/09/09 04:20:07;;;;;;;2.57;0.60;;;;;;;22.56;49.77;100617.25;4972186;28;20117;-63
2022/09/09 04:22:32;;;;;;;5.22;0.70;;;;;;;22.60;49.46;100627.38;4962193;28;20074;-63
2022/09/09 04:24:58;;;;;;;1.95;0.68;;;;;;;22.61;49.68;100621.06;4962542;28;20254;-64
2022/09/09 04:27:23;;;;;;;2.17;0.63;;;;;;;22.61;49.97;100612.28;4962157;28;20578;-63
2022/09/09 04:29:48;;;;;;;1.77;0.70;;;;;;;22.61;50.05;100615.75;4973133;28;20113;-64
2022/09/09 04:32:13;;;;;;;4.50;0.70;;;;;;;22.58;49.58;100607.28;4964964;28;20855;-63
2022/09/09 04:34:40;;;;;;;1.70;0.65;;;;;;;22.57;49.86;100606.47;4974792;28;20280;-63
2022/09/09 04:37:05;;;;;;;2.92;0.75;;;;;;;22.61;49.94;100607.81;4979479;28;20085;-65
2022/09/09 04:39:31;;;;;;;2.42;0.80;;;;;;;22.57;49.69;100593.19;4970857;28;20030;-63
2022/09/09 04:41:56;;;;;;;1.80;0.60;;;;;;;22.57;50.12;100603.81;4974613;28;20397;-64
2022/09/09 04:44:21;;;;;;;3.75;0.82;;;;;;;22.59;49.91;100609.78;4971593;28;20880;-63
2022/09/09 04:46:46;;;;;;;3.50;0.70;;;;;;;22.58;49.84;100610.78;4981471;28;20082;-62
2022/09/09 04:49:12;;;;;;;2.33;0.75;;;;;;;22.54;49.97;100593.50;4981339;28;20027;-63
2022/09/09 04:51:37;;;;;;;2.53;0.60;;;;;;;22.57;50.13;100601.16;4970706;28;20033;-63
2022/09/09 04:54:02;;;;;;;3.03;0.80;;;;;;;22.56;50.19;100594.16;4981323;28;20264;-62
2022/09/09 04:56:28;;;;;;;2.47;0.65;;;;;;;22.55;49.85;100591.69;4980840;28;20042;-63
2022/09/09 04:58:54;;;;;;;2.22;0.50;;;;;;;22.59;50.11;100590.38;4969086;28;20038;-63
2022/09/09 05:01:24;;;;;;;1.90;0.63;;;;;;;22.58;50.07;100591.34;4965816;28;20046;-63
2022/09/09 05:03:50;;;;;;;3.45;0.73;;;;;;;22.58;50.00;100597.50;4965960;28;20023;-64
2022/09/09 05:06:17;;;;;;;1.67;0.80;;;;;;;22.56;50.33;100596.00;4971107;28;20084;-63
2022/09/09 05:08:43;;;;;;;2.38;0.90;;;;;;;22.57;50.16;100600.31;4974787;28;20030;-63
2022/09/09 05:11:17;;;;;;;3.53;1.00;;;;;;;22.59;49.94;100593.84;4965567;28;20034;-63
2022/09/09 05:13:44;;;;;;;2.72;1.00;;;;;;;22.55;50.46;100589.84;4969308;28;20038;-62
2022/09/09 05:16:11;;;;;;;2.10;0.68;;;;;;;22.58;50.01;100594.00;4973438;28;20046;-61
2022/09/09 05:18:37;;;;;;;2.78;1.05;;;;;;;22.51;50.17;100595.63;4965559;28;20051;-66
2022/09/09 05:21:02;;;;;;;3.75;0.75;;;;;;;22.44;50.82;100596.25;4965466;28;20061;-63
2022/09/09 05:23:27;;;;;;;1.75;0.63;;;;;;;22.46;50.78;100596.09;4965253;28;20030;-64
2022/09/09 05:25:57;;;;;;;2.07;0.70;;;;;;;22.50;50.74;100588.69;4965545;28;20041;-62
2022/09/09 05:28:24;;;;;;;3.78;1.00;;;;;;;22.56;51.16;100596.00;4973938;28;20272;-63
2022/09/09 05:31:00;;;;;;;2.25;0.80;;;;;;;22.57;50.82;100587.88;4972352;28;20150;-63
2022/09/09 05:33:27;;;;;;;2.15;0.80;;;;;;;22.61;51.27;100591.88;4984061;28;20560;-64
2022/09/09 05:36:01;;;;;;;2.78;0.75;;;;;;;22.61;51.13;100585.72;4975325;28;20065;-63
2022/09/09 05:38:27;;;;;;;5.97;1.08;;;;;;;22.63;50.74;100589.88;4971065;28;20433;-64
2022/09/09 05:40:53;;;;;;;2.35;0.85;;;;;;;22.63;50.75;100587.22;4984650;28;20030;-64
2022/09/09 05:43:19;;;;;;;3.47;0.93;;;;;;;22.68;51.17;100596.53;4984089;28;20455;-63
2022/09/09 05:45:47;;;;;;;3.22;1.08;;;;;;;22.66;51.25;100594.03;4967579;28;20522;-62
2022/09/09 05:48:12;;;;;;;4.30;0.98;;;;;;;22.71;51.38;100607.66;4974011;28;20039;-62
2022/09/09 05:50:37;;;;;;;2.08;0.70;;;;;;;22.69;50.96;100604.34;4973310;28;20068;-61
2022/09/09 05:53:03;;;;;;;3.47;0.77;;;;;;;22.68;51.20;100597.34;4969521;28;20022;-64
2022/09/09 05:55:29;;;;;;;2.90;0.90;;;;;;;22.71;51.27;100606.84;4970812;28;20283;-63
2022/09/09 05:57:54;;;;;;;3.65;0.90;;;;;;;22.74;51.33;100610.00;4984072;28;20030;-63
2022/09/09 06:00:21;;;;;;;3.17;0.80;;;;;;;22.71;51.29;100615.63;4975723;28;20034;-63
2022/09/09 06:02:52;;;;;;;3.30;1.00;;;;;;;22.66;50.98;100614.47;4973553;28;20031;-64
2022/09/09 06:05:17;;;;;;;4.53;0.95;;;;;;;22.70;51.22;100613.13;4978678;28;20121;-66
2022/09/09 06:07:44;;;;;;;7.50;1.30;;;;;;;22.70;51.50;100608.69;4978631;28;20134;-63
2022/09/09 06:10:10;;;;;;;3.40;0.90;;;;;;;22.72;51.24;100600.53;4964432;28;20054;-64
2022/09/09 06:12:35;;;;;;;4.88;0.93;;;;;;;22.78;51.42;100610.50;4964611;28;20031;-64
2022/09/09 06:15:01;;;;;;;3.35;0.80;;;;;;;22.77;51.29;100604.38;4972428;28;20031;-62
2022/09/09 06:17:26;;;;;;;5.30;1.02;;;;;;;22.82;51.24;100615.34;4968321;28;20129;-63
2022/09/09 06:19:52;;;;;;;4.43;0.90;;;;;;;22.81;51.65;100610.19;4964298;28;20039;-62
2022/09/09 06:22:17;;;;;;;4.68;0.98;;;;;;;22.87;51.74;100617.50;4974302;28;20252;-61
2022/09/09 06:24:43;;;;;;;2.60;0.80;;;;;;;22.85;51.37;100613.38;4979418;28;20023;-63
2022/09/09 06:27:10;;;;;;;4.40;1.00;;;;;;;22.86;51.46;100615.00;4968021;28;20090;-64
2022/09/09 06:29:36;;;;;;;4.55;1.30;;;;;;;22.85;51.60;100610.72;4964205;28;20039;-63
2022/09/09 06:32:02;;;;;;;5.05;0.90;;;;;;;22.86;51.37;100607.91;4963658;28;20051;-62
2022/09/09 06:34:28;;;;;;;6.13;1.13;;;;;;;22.90;51.79;100611.88;4976028;28;20092;-64
2022/09/09 06:36:53;;;;;;;5.57;0.93;;;;;;;22.94;51.79;100613.22;4975725;28;20038;-63
2022/09/09 06:39:18;;;;;;;6.07;1.10;;;;;;;22.91;51.80;100602.09;4981375;28;20057;-62
2022/09/09 06:41:43;;;;;;;4.30;0.93;;;;;;;22.93;51.31;100606.25;4978034;28;20125;-64
2022/09/09 06:44:11;;;;;;;3.73;0.90;;;;;;;22.90;51.47;100603.91;4983355;28;20046;-65
2022/09/09 06:46:36;;;;;;;3.67;0.82;;;;;;;22.92;51.20;100606.41;4964136;28;20265;-64
2022/09/09 06:49:02;;;;;;;5.40;1.10;;;;;;;22.87;51.54;100606.88;4974477;28;20409;-69
2022/09/09 06:51:30;;;;;;;5.35;1.10;;;;;;;22.79;51.74;100601.56;4972005;28;20031;-79
2022/09/09 06:53:58;;;;;;;3.42;0.93;;;;;;;22.83;52.11;100610.88;4964295;28;20031;-75
2022/09/09 06:56:34;;;;;;;5.93;1.30;;;;;;;22.85;51.80;100590.28;4969950;28;20026;-74
2022/09/09 06:59:03;;;;;;;5.65;1.17;;;;;;;22.93;51.35;100597.44;4962823;28;20055;-73
2022/09/09 07:01:31;;;;;;;4.38;1.17;;;;;;;22.99;51.29;100621.53;4969067;28;20035;-73
2022/09/09 07:03:58;;;;;;;3.75;1.10;;;;;;;22.98;51.45;100600.44;4970714;28;20031;-74
2022/09/09 07:06:52;;;;;;;4.68;1.10;;;;;;;23.05;51.57;100609.44;4980715;28;20069;-73
2022/09/09 07:09:17;;;;;;;3.90;1.08;;;;;;;23.07;51.58;100607.44;4958080;28;20916;-74
2022/09/09 07:11:45;;;;;;;5.70;1.37;;;;;;;23.08;50.82;100600.31;4963048;28;20058;-69
2022/09/09 07:14:13;;;;;;;5.32;1.23;;;;;;;23.12;51.45;100617.63;4971913;28;20338;-63
2022/09/09 07:16:39;;;;;;;6.38;1.15;;;;;;;23.06;50.33;100605.78;4968910;28;20041;-64
2022/09/09 07:19:04;;;;;;;6.93;1.33;;;;;;;23.01;50.55;100603.59;4960998;28;20042;-70
2022/09/09 07:21:31;;;;;;;4.60;1.25;;;;;;;23.07;51.55;100599.47;4971352;28;20034;-78
2022/09/09 07:23:57;;;;;;;5.15;1.08;;;;;;;23.12;51.41;100602.50;4967672;28;20039;-78
2022/09/09 07:26:25;;;;;;;6.90;1.40;;;;;;;23.18;51.22;100609.00;4962859;28;20214;-64
2022/09/09 07:28:51;;;;;;;4.90;1.92;;;;;;;23.21;50.96;100599.84;4972216;28;20031;-65
2022/09/09 07:31:20;;;;;;;6.20;1.30;;;;;;;23.24;50.78;100602.19;4972406;28;20379;-64
2022/09/09 07:33:47;;;;;;;6.80;1.35;;;;;;;23.21;50.85;100599.84;4977167;28;20035;-66
2022/09/09 07:36:15;;;;;;;8.15;1.25;;;;;;;23.18;51.01;100604.50;4978161;28;20034;-65
2022/09/09 07:39:01;;;;;;;3.38;1.05;;;;;;;23.14;51.29;100612.97;4971823;28;20101;-65
2022/09/09 07:41:32;;;;;;;5.82;1.30;;;;;;;23.09;51.27;100607.31;4963211;28;20121;-64
2022/09/09 07:43:58;;;;;;;4.68;0.90;;;;;;;23.11;51.19;100611.44;4977749;28;20375;-67
2022/09/09 07:46:25;;;;;;;6.25;1.00;;;;;;;23.05;51.56;100600.63;4963501;28;20038;-68
2022/09/09 07:48:53;;;;;;;6.53;1.00;;;;;;;23.00;51.23;100604.63;4974476;28;20034;-67
2022/09/09 07:51:24;;;;;;;4.93;1.20;;;;;;;22.99;51.23;100589.66;4964894;28;20035;-68
2022/09/09 07:53:54;;;;;;;5.43;1.35;;;;;;;23.01;51.23;100605.44;4970849;28;20073;-67
2022/09/09 07:56:23;;;;;;;3.60;0.80;;;;;;;22.99;51.80;100610.91;4978687;28;20142;-68
2022/09/09 07:58:49;;;;;;;6.32;1.10;;;;;;;22.98;51.61;100611.88;4969593;28;20470;-66
2022/09/09 08:01:18;;;;;;;6.00;1.10;;;;;;;22.93;51.41;100598.28;4974915;28;20066;-70
2022/09/09 08:03:44;;;;;;;5.05;1.38;;;;;;;22.98;52.00;100592.47;4977783;28;20041;-67
2022/09/09 08:06:12;;;;;;;6.88;1.65;;;;;;;23.01;51.58;100608.91;4981829;28;20045;-65
2022/09/09 08:08:38;;;;;;;4.28;1.17;;;;;;;23.06;51.70;100611.09;4963041;28;20093;-65
2022/09/09 08:11:16;;;;;;;6.90;1.17;;;;;;;23.12;51.78;100609.66;4973520;28;20072;-65
2022/09/09 08:13:43;;;;;;;4.78;1.10;;;;;;;23.15;51.38;100604.81;4975903;28;20030;-75
2022/09/09 08:16:11;;;;;;;2.95;1.00;;;;;;;23.16;51.85;100610.97;4970300;28;20471;-74
2022/09/09 08:18:37;;;;;;;5.82;1.40;;;;;;;23.12;51.97;100607.81;4970183;28;20065;-75
2022/09/09 08:21:15;;;;;;;4.65;1.00;;;;;;;23.19;51.20;100600.00;4971352;28;20914;-76
2022/09/09 08:23:41;;;;;;;6.05;1.40;;;;;;;23.24;51.15;100599.53;4971801;28;20041;-76
2022/09/09 08:26:10;;;;;;;4.75;1.05;;;;;;;23.31;51.26;100600.53;4968463;28;20052;-74
2022/09/09 08:28:36;;;;;;;5.20;1.20;;;;;;;23.37;51.26;100602.53;4971422;28;20115;-75
2022/09/09 08:31:10;;;;;;;6.20;1.30;;;;;;;23.46;50.87;100598.03;4971226;28;20071;-75
2022/09/09 08:33:37;;;;;;;;;;;;;;;23.51;50.52;100607.19;4971032;28;20035;-76
2022/09/09 08:36:03;;;;;;;4.60;1.10;;;;;;;23.57;50.64;100603.03;4975832;28;19922;-77
2022/09/09 08:38:28;;;;;;;4.60;1.35;;;;;;;23.63;50.56;100612.19;4965882;28;20565;-76
2022/09/09 08:41:03;;;;;;;4.67;1.20;;;;;;;23.68;50.19;100617.81;4975700;28;20043;-78
2022/09/09 08:43:31;;;;;;;5.10;1.27;;;;;;;23.65;49.77;100610.19;4965966;28;21134;-72
2022/09/09 08:46:12;;;;;;;5.97;1.55;;;;;;;23.62;50.17;100614.00;4965489;28;20035;-71
2022/09/09 08:48:46;;;;;;;5.00;1.30;;;;;;;23.59;50.42;100619.66;4978013;28;20117;-70
2022/09/09 08:51:13;;;;;;;2.78;0.98;;;;;;;23.57;50.45;100613.66;4966374;28;20142;-69
2022/09/09 08:53:49;;;;;;;6.10;1.50;;;;;;;23.62;49.96;100616.66;4977762;28;20046;-80
2022/09/09 08:56:21;;;;;;;6.20;1.20;;;;;;;23.67;50.03;100614.34;4969993;28;20030;-74
2022/09/09 08:58:49;;;;;;;5.20;0.90;;;;;;;23.73;49.90;100620.81;4965092;28;20058;-71
2022/09/09 09:01:41;;;;;;;7.38;1.35;;;;;;;23.79;49.98;100622.81;4970129;28;20630;-81
2022/09/09 09:04:31;;;;;;;8.07;1.10;;;;;;;23.87;49.76;100632.66;4955599;28;20038;-75
2022/09/09 09:07:22;;;;;;;5.50;1.17;;;;;;;23.85;49.64;100629.34;4968060;28;20489;-75
2022/09/09 09:10:02;;;;;;;4.38;1.30;;;;;;;23.88;50.00;100635.16;4968787;28;20054;-73
2022/09/09 09:12:35;;;;;;;5.60;1.88;;;;;;;23.82;49.66;100627.78;4978413;28;20065;-71
2022/09/09 09:15:00;;;;;;;6.00;1.40;;;;;;;23.78;49.56;100615.81;4980576;28;20038;-72
2022/09/09 09:17:31;;;;;;;5.18;1.17;;;;;;;23.72;49.98;100635.13;4974836;28;20057;-70
2022/09/09 09:19:58;;;;;;;5.40;1.15;;;;;;;23.67;49.85;100643.59;4969014;28;20070;-72
2022/09/09 09:22:48;;;;;;;4.93;1.10;;;;;;;23.64;50.40;100653.72;4964749;28;20169;-70
2022/09/09 09:25:23;;;;;;;5.22;0.90;;;;;;;23.66;50.33;100651.75;4978854;28;20026;-77
2022/09/09 09:28:10;;;;;;;3.80;1.10;;;;;;;23.71;50.37;100652.91;4975462;28;20034;-76
2022/09/09 09:30:42;;;;;;;5.10;1.20;;;;;;;23.73;50.32;100652.75;4972634;28;20059;-73
2022/09/09 09:33:20;;;;;;;6.93;1.20;;;;;;;23.74;49.92;100646.44;4983778;28;20390;-70
2022/09/09 09:35:48;;;;;;;4.63;1.00;;;;;;;23.67;50.14;100635.63;4983710;28;20062;-72
2022/09/09 09:38:25;;;;;;;6.35;1.13;;;;;;;23.56;50.21;100630.63;4983583;28;20031;-72
2022/09/09 09:40:50;;;;;;;5.53;1.08;;;;;;;23.65;50.30;100640.25;4981546;28;20034;-82
2022/09/09 09:43:25;;;;;;;4.22;1.17;;;;;;;23.68;50.40;100639.94;4965098;28;20042;-79
2022/09/09 09:45:50;;;;;;;5.35;1.33;;;;;;;23.73;50.31;100645.59;4995459;28;20487;-80
2022/09/09 09:48:15;;;;;;;6.27;1.30;;;;;;;23.80;50.30;100640.44;4975107;28;20118;-76
2022/09/09 09:50:58;;;;;;;4.50;1.17;;;;;;;23.85;50.28;100648.78;4965701;28;21489;-76
2022/09/09 09:53:27;;;;;;;3.92;1.15;;;;;;;23.85;49.85;100630.16;4979041;28;20272;-77
2022/09/09 09:55:57;;;;;;;4.97;1.15;;;;;;;23.86;49.96;100634.50;4974103;28;20034;-80
2022/09/09 09:58:24;;;;;;;6.43;1.00;;;;;;;23.89;49.86;100635.97;4965806;28;20035;-81
2022/09/09 10:00:52;;;;;;;4.68;1.15;;;;;;;23.88;49.87;100637.81;4970124;28;20038;-72
2022/09/09 10:03:33;;;;;;;6.97;1.10;;;;;;;23.83;50.03;100637.47;4978798;28;20035;-78
2022/09/09 10:05:58;;;;;;;4.50;1.00;;;;;;;23.90;49.92;100638.47;4975347;28;20030;-76
2022/09/09 10:08:27;;;;;;;5.23;0.90;;;;;;;23.94;49.51;100646.09;4964335;28;20031;-81
2022/09/09 10:10:58;;;;;;;6.38;1.20;;;;;;;23.97;49.75;100633.28;4967500;28;20308;-79
2022/09/09 10:13:36;;;;;;;4.30;1.05;;;;;;;24.05;49.37;100637.78;4972755;28;20038;-77
2022/09/09 10:16:21;;;;;;;6.78;1.27;;;;;;;24.07;49.49;100639.28;4976092;28;20073;-73
2022/09/09 10:19:04;;;;;;;4.35;1.05;;;;;;;24.08;49.52;100651.59;4963706;28;20117;-77
2022/09/09 10:21:57;;;;;;;5.22;1.30;;;;;;;24.07;49.39;100646.44;4969039;28;20031;-66
2022/09/09 10:24:56;;;;;;;4.95;1.30;;;;;;;24.00;49.81;100645.44;4965726;28;20669;-66
2022/09/09 10:27:39;;;;;;;5.50;1.00;;;;;;;23.95;50.03;100659.25;4967360;28;20034;-65
2022/09/09 10:30:42;;;;;;;7.30;1.38;;;;;;;23.89;50.11;100654.59;4983806;28;20121;-65
2022/09/09 10:33:28;;;;;;;5.50;1.20;;;;;;;23.87;50.03;100662.75;4974229;28;20093;-64
2022/09/09 10:36:18;;;;;;;5.15;1.27;;;;;;;23.84;50.30;100665.72;4969436;28;20060;-65
2022/09/09 10:38:52;;;;;;;4.82;1.17;;;;;;;23.72;50.52;100653.75;4981004;28;20121;-65
2022/09/09 10:41:55;;;;;;;8.80;1.27;;;;;;;23.75;50.61;100660.56;4973074;28;20036;-72
2022/09/09 10:44:34;;;;;;;6.93;1.23;;;;;;;23.75;50.69;100660.56;4973257;28;20117;-76
2022/09/09 10:47:13;;;;;;;4.10;1.15;;;;;;;23.76;51.12;100657.72;4977231;28;20516;-78
2022/09/09 10:50:08;;;;;;;7.25;1.35;;;;;;;23.77;50.67;100659.41;4975715;28;20034;-77
2022/09/09 10:52:36;;;;;;;4.85;1.15;;;;;;;23.78;50.96;100657.56;4960238;28;20039;-81
2022/09/09 10:55:18;;;;;;;7.57;1.00;;;;;;;23.78;51.05;100647.75;4969028;28;20037;-76
2022/09/09 10:57:47;;;;;;;4.47;1.20;;;;;;;23.82;50.94;100649.09;4973277;28;20038;-78
2022/09/09 11:00:25;;;;;;;6.05;1.40;;;;;;;23.87;50.48;100645.94;4965970;28;20450;-77
2022/09/09 11:02:59;;;;;;;4.70;0.93;;;;;;;23.93;50.54;100657.78;4970231;28;20033;-74
2022/09/09 11:05:52;;;;;;;10.38;1.17;;;;;;;23.95;50.90;100643.28;4972341;28;20038;-74
2022/09/09 11:08:27;;;;;;;8.00;1.13;;;;;;;23.96;50.63;100660.91;4945109;28;20474;-79
2022/09/09 11:11:04;;;;;;;4.68;1.20;;;;;;;24.00;50.96;100648.09;4973572;28;20382;-75
2022/09/09 11:13:58;;;;;;;6.35;1.58;;;;;;;24.04;51.04;100652.09;4973743;28;20045;-77
2022/09/09 11:16:49;;;;;;;10.90;2.60;;;;;;;24.05;52.52;100651.94;4968818;28;20034;-75
2022/09/09 11:19:19;;;;;;;9.57;2.38;;;;;;;24.10;52.65;100656.75;4980786;28;20283;-76
2022/09/09 11:21:49;;;;;;;9.57;2.13;;;;;;;24.06;52.77;100645.59;4968217;28;20026;-82
2022/09/09 11:24:40;;;;;;;5.95;1.88;;;;;;;24.11;52.87;100652.25;4968530;28;20076;-72
2022/09/09 11:27:20;;;;;;;7.43;2.15;;;;;;;24.13;52.76;100651.06;4973350;28;20393;-72
2022/09/09 11:30:11;;;;;;;8.25;1.92;;;;;;;24.11;52.60;100646.94;4978109;28;20049;-66
2022/09/09 11:33:11;;;;;;;9.50;1.95;;;;;;;24.05;52.95;100638.63;4972382;28;20060;-65
2022/09/09 11:36:02;;;;;;;7.68;1.60;;;;;;;24.04;53.04;100652.09;4961043;28;20050;-65
2022/09/09 11:38:32;;;;;;;8.63;2.08;;;;;;;24.01;52.90;100647.94;4967869;28;20038;-65
2022/09/09 11:41:02;;;;;;;6.15;2.05;;;;;;;23.96;52.12;100644.09;4963366;28;20509;-65
2022/09/09 11:43:41;;;;;;;9.27;2.00;;;;;;;23.92;52.44;100650.78;4965206;28;20031;-65
2022/09/09 11:46:08;;;;;;;10.02;1.80;;;;;;;23.88;52.69;100647.63;4982299;28;20038;-65